sensor_id;sensor_type;location;lat;lon;timestamp;P1;durP1;ratioP1;P2;durP2;ratioP2
1446;SDS011;717;51.522;7.266;2023-07-16T00:00:02;3.65;;;1.10;;
1446;SDS011;717;51.522;7.266;2023-07-16T00:02:35;2.13;;;1.15;;
1446;SDS011;717;51.522;7.266;2023-07-16T00:05:07;2.72;;;1.30;;
1446;SDS011;717;51.522;7.266;2023-07-16T00:07:37;5.57;;;1.30;;
1446;SDS011;717;51.522;7.266;2023-07-16T00:10:08;1.70;;;1.10;;
1446;SDS011;717;51.522;7.266;2023-07-16T00:12:40;2.75;;;0.93;;
1446;SDS011;717;51.522;7.266;2023-07-16T00:15:13;3.78;;;1.63;;
1446;SDS011;717;51.522;7.266;2023-07-16T00:17:43;2.90;;;1.20;;
1446;SDS011;717;51.522;7.266;2023-07-16T00:20:14;2.03;;;1.15;;
1446;SDS011;717;51.522;7.266;2023-07-16T00:22:44;2.58;;;1.00;;
1446;SDS011;717;51.522;7.266;2023-07-16T00:25:14;2.25;;;1.20;;
1446;SDS011;717;51.522;7.266;2023-07-16T00:27:44;3.15;;;1.02;;
1446;SDS011;717;51.522;7.266;2023-07-16T00:30:18;1.95;;;1.30;;
1446;SDS011;717;51.522;7.266;2023-07-16T00:32:48;2.13;;;1.33;;
1446;SDS011;717;51.522;7.266;2023-07-16T00:35:18;2.45;;;1.42;;
1446;SDS011;717;51.522;7.266;2023-07-16T00:37:48;3.38;;;1.30;;
1446;SDS011;717;51.522;7.266;2023-07-16T00:40:18;2.55;;;1.52;;
1446;SDS011;717;51.522;7.266;2023-07-16T00:42:48;2.75;;;1.13;;
1446;SDS011;717;51.522;7.266;2023-07-16T00:45:21;2.70;;;1.20;;
1446;SDS011;717;51.522;7.266;2023-07-16T00:47:51;1.90;;;1.20;;
1446;SDS011;717;51.522;7.266;2023-07-16T00:50:22;1.98;;;1.10;;
1446;SDS011;717;51.522;7.266;2023-07-16T00:52:52;2.50;;;1.27;;
1446;SDS011;717;51.522;7.266;2023-07-16T00:55:22;1.33;;;1.23;;
1446;SDS011;717;51.522;7.266;2023-07-16T00:57:52;1.58;;;1.30;;
1446;SDS011;717;51.522;7.266;2023-07-16T01:00:26;1.63;;;0.98;;
1446;SDS011;717;51.522;7.266;2023-07-16T01:02:57;1.95;;;1.25;;
1446;SDS011;717;51.522;7.266;2023-07-16T01:05:29;2.88;;;1.23;;
1446;SDS011;717;51.522;7.266;2023-07-16T01:08:08;1.50;;;1.00;;
1446;SDS011;717;51.522;7.266;2023-07-16T01:10:40;2.45;;;1.63;;
1446;SDS011;717;51.522;7.266;2023-07-16T01:13:12;2.15;;;1.33;;
1446;SDS011;717;51.522;7.266;2023-07-16T01:15:46;2.47;;;1.50;;
1446;SDS011;717;51.522;7.266;2023-07-16T01:18:16;4.03;;;1.67;;
1446;SDS011;717;51.522;7.266;2023-07-16T01:20:46;1.98;;;1.58;;
1446;SDS011;717;51.522;7.266;2023-07-16T01:23:24;4.25;;;1.77;;
1446;SDS011;717;51.522;7.266;2023-07-16T01:26:06;2.22;;;1.58;;
1446;SDS011;717;51.522;7.266;2023-07-16T01:28:48;2.22;;;1.30;;
1446;SDS011;717;51.522;7.266;2023-07-16T01:31:29;2.40;;;1.58;;
1446;SDS011;717;51.522;7.266;2023-07-16T01:34:01;1.98;;;1.30;;
1446;SDS011;717;51.522;7.266;2023-07-16T01:36:33;1.55;;;1.42;;
1446;SDS011;717;51.522;7.266;2023-07-16T01:39:05;3.00;;;1.50;;
1446;SDS011;717;51.522;7.266;2023-07-16T01:41:36;2.50;;;1.35;;
1446;SDS011;717;51.522;7.266;2023-07-16T01:44:06;5.60;;;1.88;;
1446;SDS011;717;51.522;7.266;2023-07-16T01:46:38;2.53;;;1.33;;
1446;SDS011;717;51.522;7.266;2023-07-16T01:49:09;3.15;;;1.27;;
1446;SDS011;717;51.522;7.266;2023-07-16T01:51:37;2.13;;;1.20;;
1446;SDS011;717;51.522;7.266;2023-07-16T01:54:07;2.78;;;1.50;;
1446;SDS011;717;51.522;7.266;2023-07-16T01:56:37;2.58;;;1.25;;
1446;SDS011;717;51.522;7.266;2023-07-16T01:59:07;2.53;;;1.20;;
1446;SDS011;717;51.522;7.266;2023-07-16T02:01:40;2.55;;;1.45;;
1446;SDS011;717;51.522;7.266;2023-07-16T02:04:10;2.28;;;1.30;;
1446;SDS011;717;51.522;7.266;2023-07-16T02:06:40;1.40;;;1.13;;
1446;SDS011;717;51.522;7.266;2023-07-16T02:09:10;1.33;;;1.23;;
1446;SDS011;717;51.522;7.266;2023-07-16T02:11:42;2.60;;;1.33;;
1446;SDS011;717;51.522;7.266;2023-07-16T02:14:12;2.47;;;1.20;;
1446;SDS011;717;51.522;7.266;2023-07-16T02:16:45;1.27;;;1.08;;
1446;SDS011;717;51.522;7.266;2023-07-16T02:19:15;2.78;;;1.30;;
1446;SDS011;717;51.522;7.266;2023-07-16T02:21:45;2.97;;;1.20;;
1446;SDS011;717;51.522;7.266;2023-07-16T02:24:15;2.15;;;1.25;;
1446;SDS011;717;51.522;7.266;2023-07-16T02:26:45;3.80;;;1.42;;
1446;SDS011;717;51.522;7.266;2023-07-16T02:29:15;3.13;;;1.40;;
1446;SDS011;717;51.522;7.266;2023-07-16T02:31:48;1.73;;;1.30;;
1446;SDS011;717;51.522;7.266;2023-07-16T02:34:18;1.90;;;1.20;;
1446;SDS011;717;51.522;7.266;2023-07-16T02:36:48;2.63;;;1.30;;
1446;SDS011;717;51.522;7.266;2023-07-16T02:39:19;2.67;;;1.50;;
1446;SDS011;717;51.522;7.266;2023-07-16T02:41:49;2.22;;;1.30;;
1446;SDS011;717;51.522;7.266;2023-07-16T02:44:19;2.00;;;1.30;;
1446;SDS011;717;51.522;7.266;2023-07-16T02:46:51;2.28;;;1.20;;
1446;SDS011;717;51.522;7.266;2023-07-16T02:49:21;2.78;;;1.10;;
1446;SDS011;717;51.522;7.266;2023-07-16T02:51:51;2.63;;;1.20;;
1446;SDS011;717;51.522;7.266;2023-07-16T02:54:21;2.83;;;1.30;;
1446;SDS011;717;51.522;7.266;2023-07-16T02:56:52;1.63;;;1.17;;
1446;SDS011;717;51.522;7.266;2023-07-16T02:59:22;2.65;;;1.05;;
1446;SDS011;717;51.522;7.266;2023-07-16T03:01:54;3.58;;;1.38;;
1446;SDS011;717;51.522;7.266;2023-07-16T03:04:24;1.67;;;1.27;;
1446;SDS011;717;51.522;7.266;2023-07-16T03:06:54;2.08;;;1.15;;
1446;SDS011;717;51.522;7.266;2023-07-16T03:09:24;2.42;;;1.27;;
1446;SDS011;717;51.522;7.266;2023-07-16T03:11:54;1.85;;;1.20;;
1446;SDS011;717;51.522;7.266;2023-07-16T03:14:24;2.63;;;1.73;;
1446;SDS011;717;51.522;7.266;2023-07-16T03:16:58;3.10;;;1.13;;
1446;SDS011;717;51.522;7.266;2023-07-16T03:19:28;2.92;;;1.20;;
1446;SDS011;717;51.522;7.266;2023-07-16T03:21:58;3.00;;;1.17;;
1446;SDS011;717;51.522;7.266;2023-07-16T03:24:29;4.70;;;1.33;;
1446;SDS011;717;51.522;7.266;2023-07-16T03:26:59;2.33;;;1.38;;
1446;SDS011;717;51.522;7.266;2023-07-16T03:29:43;3.20;;;1.35;;
1446;SDS011;717;51.522;7.266;2023-07-16T03:32:18;5.00;;;1.13;;
1446;SDS011;717;51.522;7.266;2023-07-16T03:34:57;1.67;;;1.23;;
1446;SDS011;717;51.522;7.266;2023-07-16T03:37:28;5.50;;;1.45;;
1446;SDS011;717;51.522;7.266;2023-07-16T03:40:01;3.45;;;1.48;;
1446;SDS011;717;51.522;7.266;2023-07-16T03:42:43;3.53;;;1.30;;
1446;SDS011;717;51.522;7.266;2023-07-16T03:45:13;4.57;;;1.40;;
1446;SDS011;717;51.522;7.266;2023-07-16T03:47:46;4.10;;;1.50;;
1446;SDS011;717;51.522;7.266;2023-07-16T03:50:16;3.15;;;1.45;;
1446;SDS011;717;51.522;7.266;2023-07-16T03:52:47;2.88;;;1.42;;
1446;SDS011;717;51.522;7.266;2023-07-16T03:55:17;3.78;;;1.15;;
1446;SDS011;717;51.522;7.266;2023-07-16T03:57:48;4.25;;;1.35;;
1446;SDS011;717;51.522;7.266;2023-07-16T04:00:19;1.90;;;1.30;;
1446;SDS011;717;51.522;7.266;2023-07-16T04:02:53;1.70;;;1.30;;
1446;SDS011;717;51.522;7.266;2023-07-16T04:05:24;3.05;;;1.10;;
1446;SDS011;717;51.522;7.266;2023-07-16T04:07:54;3.30;;;1.48;;
1446;SDS011;717;51.522;7.266;2023-07-16T04:10:24;3.58;;;1.40;;
1446;SDS011;717;51.522;7.266;2023-07-16T04:12:54;5.00;;;1.80;;
1446;SDS011;717;51.522;7.266;2023-07-16T04:15:24;3.40;;;1.40;;
1446;SDS011;717;51.522;7.266;2023-07-16T04:17:57;4.32;;;1.92;;
1446;SDS011;717;51.522;7.266;2023-07-16T04:20:27;3.95;;;2.00;;
1446;SDS011;717;51.522;7.266;2023-07-16T04:22:57;4.40;;;1.60;;
1446;SDS011;717;51.522;7.266;2023-07-16T04:25:27;3.55;;;1.50;;
1446;SDS011;717;51.522;7.266;2023-07-16T04:27:57;3.30;;;1.75;;
1446;SDS011;717;51.522;7.266;2023-07-16T04:30:30;2.88;;;1.65;;
1446;SDS011;717;51.522;7.266;2023-07-16T04:33:03;6.35;;;1.88;;
1446;SDS011;717;51.522;7.266;2023-07-16T04:35:33;6.00;;;2.17;;
1446;SDS011;717;51.522;7.266;2023-07-16T04:38:03;4.00;;;1.77;;
1446;SDS011;717;51.522;7.266;2023-07-16T04:40:34;5.07;;;1.80;;
1446;SDS011;717;51.522;7.266;2023-07-16T04:43:04;2.13;;;1.40;;
1446;SDS011;717;51.522;7.266;2023-07-16T04:45:34;7.93;;;1.83;;
1446;SDS011;717;51.522;7.266;2023-07-16T04:48:09;2.53;;;1.40;;
1446;SDS011;717;51.522;7.266;2023-07-16T04:50:39;2.80;;;1.75;;
1446;SDS011;717;51.522;7.266;2023-07-16T04:53:09;3.42;;;1.70;;
1446;SDS011;717;51.522;7.266;2023-07-16T04:55:39;3.65;;;1.67;;
1446;SDS011;717;51.522;7.266;2023-07-16T04:58:10;3.35;;;1.85;;
1446;SDS011;717;51.522;7.266;2023-07-16T05:00:41;4.30;;;1.90;;
1446;SDS011;717;51.522;7.266;2023-07-16T05:03:14;4.57;;;1.95;;
1446;SDS011;717;51.522;7.266;2023-07-16T05:05:44;3.88;;;1.80;;
1446;SDS011;717;51.522;7.266;2023-07-16T05:08:15;4.18;;;1.98;;
1446;SDS011;717;51.522;7.266;2023-07-16T05:10:45;5.50;;;1.95;;
1446;SDS011;717;51.522;7.266;2023-07-16T05:13:15;2.47;;;1.73;;
1446;SDS011;717;51.522;7.266;2023-07-16T05:15:45;5.55;;;2.10;;
1446;SDS011;717;51.522;7.266;2023-07-16T05:18:18;3.95;;;1.80;;
1446;SDS011;717;51.522;7.266;2023-07-16T05:20:48;4.53;;;2.08;;
1446;SDS011;717;51.522;7.266;2023-07-16T05:23:18;3.05;;;2.10;;
1446;SDS011;717;51.522;7.266;2023-07-16T05:25:49;3.78;;;1.80;;
1446;SDS011;717;51.522;7.266;2023-07-16T05:28:19;3.78;;;1.83;;
1446;SDS011;717;51.522;7.266;2023-07-16T05:30:57;3.70;;;1.98;;
1446;SDS011;717;51.522;7.266;2023-07-16T05:33:30;3.40;;;1.92;;
1446;SDS011;717;51.522;7.266;2023-07-16T05:36:00;4.85;;;2.10;;
1446;SDS011;717;51.522;7.266;2023-07-16T05:38:30;4.55;;;1.88;;
1446;SDS011;717;51.522;7.266;2023-07-16T05:41:01;3.90;;;1.90;;
1446;SDS011;717;51.522;7.266;2023-07-16T05:43:32;2.80;;;1.95;;
1446;SDS011;717;51.522;7.266;2023-07-16T05:46:02;4.30;;;1.92;;
1446;SDS011;717;51.522;7.266;2023-07-16T05:48:35;2.80;;;1.75;;
1446;SDS011;717;51.522;7.266;2023-07-16T05:51:05;6.65;;;2.30;;
1446;SDS011;717;51.522;7.266;2023-07-16T05:53:35;5.28;;;2.03;;
1446;SDS011;717;51.522;7.266;2023-07-16T05:56:05;3.17;;;2.10;;
1446;SDS011;717;51.522;7.266;2023-07-16T05:58:35;3.63;;;2.03;;
1446;SDS011;717;51.522;7.266;2023-07-16T06:01:05;4.68;;;1.90;;
1446;SDS011;717;51.522;7.266;2023-07-16T06:03:38;4.07;;;2.08;;
1446;SDS011;717;51.522;7.266;2023-07-16T06:06:08;3.75;;;1.90;;
1446;SDS011;717;51.522;7.266;2023-07-16T06:08:38;4.63;;;2.08;;
1446;SDS011;717;51.522;7.266;2023-07-16T06:11:08;4.05;;;2.20;;
1446;SDS011;717;51.522;7.266;2023-07-16T06:13:38;4.25;;;2.50;;
1446;SDS011;717;51.522;7.266;2023-07-16T06:16:08;6.50;;;2.58;;
1446;SDS011;717;51.522;7.266;2023-07-16T06:18:41;6.47;;;2.58;;
1446;SDS011;717;51.522;7.266;2023-07-16T06:21:11;5.47;;;3.13;;
1446;SDS011;717;51.522;7.266;2023-07-16T06:23:42;6.88;;;2.97;;
1446;SDS011;717;51.522;7.266;2023-07-16T06:26:12;4.53;;;2.72;;
1446;SDS011;717;51.522;7.266;2023-07-16T06:28:43;6.38;;;2.55;;
1446;SDS011;717;51.522;7.266;2023-07-16T06:31:15;5.32;;;2.55;;
1446;SDS011;717;51.522;7.266;2023-07-16T06:33:48;5.45;;;2.80;;
1446;SDS011;717;51.522;7.266;2023-07-16T06:36:18;5.00;;;3.10;;
1446;SDS011;717;51.522;7.266;2023-07-16T06:38:48;6.13;;;3.10;;
1446;SDS011;717;51.522;7.266;2023-07-16T06:41:18;3.22;;;2.72;;
1446;SDS011;717;51.522;7.266;2023-07-16T06:43:48;5.20;;;3.20;;
1446;SDS011;717;51.522;7.266;2023-07-16T06:46:18;5.82;;;3.20;;
1446;SDS011;717;51.522;7.266;2023-07-16T06:48:51;5.88;;;2.78;;
1446;SDS011;717;51.522;7.266;2023-07-16T06:51:21;6.97;;;3.42;;
1446;SDS011;717;51.522;7.266;2023-07-16T06:53:51;4.75;;;2.90;;
1446;SDS011;717;51.522;7.266;2023-07-16T06:56:21;4.55;;;2.90;;
1446;SDS011;717;51.522;7.266;2023-07-16T06:58:51;8.55;;;3.47;;
1446;SDS011;717;51.522;7.266;2023-07-16T07:01:21;8.07;;;3.28;;
1446;SDS011;717;51.522;7.266;2023-07-16T07:03:57;7.80;;;3.78;;
1446;SDS011;717;51.522;7.266;2023-07-16T07:06:27;7.40;;;3.05;;
1446;SDS011;717;51.522;7.266;2023-07-16T07:08:57;5.55;;;3.28;;
1446;SDS011;717;51.522;7.266;2023-07-16T07:11:27;5.53;;;3.10;;
1446;SDS011;717;51.522;7.266;2023-07-16T07:13:57;6.45;;;3.47;;
1446;SDS011;717;51.522;7.266;2023-07-16T07:16:27;5.80;;;2.75;;
1446;SDS011;717;51.522;7.266;2023-07-16T07:19:00;6.28;;;3.28;;
1446;SDS011;717;51.522;7.266;2023-07-16T07:21:30;6.28;;;3.60;;
1446;SDS011;717;51.522;7.266;2023-07-16T07:24:00;6.88;;;3.22;;
1446;SDS011;717;51.522;7.266;2023-07-16T07:26:30;6.45;;;3.53;;
1446;SDS011;717;51.522;7.266;2023-07-16T07:29:00;7.70;;;4.03;;
1446;SDS011;717;51.522;7.266;2023-07-16T07:31:30;4.75;;;3.20;;
1446;SDS011;717;51.522;7.266;2023-07-16T07:34:03;7.32;;;3.55;;
1446;SDS011;717;51.522;7.266;2023-07-16T07:36:33;6.47;;;3.22;;
1446;SDS011;717;51.522;7.266;2023-07-16T07:39:03;5.75;;;3.00;;
1446;SDS011;717;51.522;7.266;2023-07-16T07:41:33;5.80;;;3.63;;
1446;SDS011;717;51.522;7.266;2023-07-16T07:44:03;6.30;;;3.28;;
1446;SDS011;717;51.522;7.266;2023-07-16T07:46:33;6.20;;;3.40;;
1446;SDS011;717;51.522;7.266;2023-07-16T07:49:06;5.40;;;3.40;;
1446;SDS011;717;51.522;7.266;2023-07-16T07:51:36;7.72;;;3.35;;
1446;SDS011;717;51.522;7.266;2023-07-16T07:54:06;5.57;;;3.40;;
1446;SDS011;717;51.522;7.266;2023-07-16T07:56:37;4.38;;;3.70;;
1446;SDS011;717;51.522;7.266;2023-07-16T07:59:07;5.47;;;3.42;;
1446;SDS011;717;51.522;7.266;2023-07-16T08:01:37;5.78;;;3.42;;
1446;SDS011;717;51.522;7.266;2023-07-16T08:04:10;6.53;;;3.53;;
1446;SDS011;717;51.522;7.266;2023-07-16T08:06:40;3.75;;;2.97;;
1446;SDS011;717;51.522;7.266;2023-07-16T08:09:10;4.65;;;2.97;;
1446;SDS011;717;51.522;7.266;2023-07-16T08:11:40;6.28;;;3.40;;
1446;SDS011;717;51.522;7.266;2023-07-16T08:14:10;5.15;;;3.10;;
1446;SDS011;717;51.522;7.266;2023-07-16T08:16:41;5.07;;;3.30;;
1446;SDS011;717;51.522;7.266;2023-07-16T08:19:13;4.63;;;3.17;;
1446;SDS011;717;51.522;7.266;2023-07-16T08:21:43;6.88;;;3.53;;
1446;SDS011;717;51.522;7.266;2023-07-16T08:24:13;4.75;;;3.30;;
1446;SDS011;717;51.522;7.266;2023-07-16T08:26:43;5.57;;;3.90;;
1446;SDS011;717;51.522;7.266;2023-07-16T08:29:13;5.43;;;3.30;;
1446;SDS011;717;51.522;7.266;2023-07-16T08:31:43;5.78;;;3.00;;
1446;SDS011;717;51.522;7.266;2023-07-16T08:34:16;6.90;;;3.30;;
1446;SDS011;717;51.522;7.266;2023-07-16T08:36:46;4.10;;;3.28;;
1446;SDS011;717;51.522;7.266;2023-07-16T08:39:16;5.60;;;3.47;;
1446;SDS011;717;51.522;7.266;2023-07-16T08:41:51;4.38;;;3.05;;
1446;SDS011;717;51.522;7.266;2023-07-16T08:44:22;7.03;;;3.85;;
1446;SDS011;717;51.522;7.266;2023-07-16T08:46:52;6.53;;;3.65;;
1446;SDS011;717;51.522;7.266;2023-07-16T08:49:26;7.78;;;3.72;;
1446;SDS011;717;51.522;7.266;2023-07-16T08:52:00;4.28;;;3.15;;
1446;SDS011;717;51.522;7.266;2023-07-16T08:54:31;3.95;;;2.78;;
1446;SDS011;717;51.522;7.266;2023-07-16T08:57:01;4.35;;;3.30;;
1446;SDS011;717;51.522;7.266;2023-07-16T08:59:31;6.65;;;3.60;;
1446;SDS011;717;51.522;7.266;2023-07-16T09:02:02;4.10;;;3.33;;
1446;SDS011;717;51.522;7.266;2023-07-16T09:04:35;4.80;;;3.22;;
1446;SDS011;717;51.522;7.266;2023-07-16T09:07:05;5.75;;;3.17;;
1446;SDS011;717;51.522;7.266;2023-07-16T09:09:35;4.70;;;3.05;;
1446;SDS011;717;51.522;7.266;2023-07-16T09:12:05;4.93;;;3.25;;
1446;SDS011;717;51.522;7.266;2023-07-16T09:14:36;5.07;;;3.25;;
1446;SDS011;717;51.522;7.266;2023-07-16T09:17:06;5.93;;;3.50;;
1446;SDS011;717;51.522;7.266;2023-07-16T09:19:39;4.75;;;2.67;;
1446;SDS011;717;51.522;7.266;2023-07-16T09:22:09;4.30;;;2.90;;
1446;SDS011;717;51.522;7.266;2023-07-16T09:24:39;4.05;;;2.60;;
1446;SDS011;717;51.522;7.266;2023-07-16T09:27:10;5.18;;;2.53;;
1446;SDS011;717;51.522;7.266;2023-07-16T09:29:41;6.13;;;2.90;;
1446;SDS011;717;51.522;7.266;2023-07-16T09:32:11;5.30;;;2.53;;
1446;SDS011;717;51.522;7.266;2023-07-16T09:34:44;4.70;;;2.78;;
1446;SDS011;717;51.522;7.266;2023-07-16T09:37:18;5.20;;;2.50;;
1446;SDS011;717;51.522;7.266;2023-07-16T09:39:48;3.85;;;2.65;;
1446;SDS011;717;51.522;7.266;2023-07-16T09:42:19;3.47;;;2.20;;
1446;SDS011;717;51.522;7.266;2023-07-16T09:44:51;3.10;;;2.63;;
1446;SDS011;717;51.522;7.266;2023-07-16T09:47:23;4.22;;;2.72;;
1446;SDS011;717;51.522;7.266;2023-07-16T09:49:55;3.80;;;3.13;;
1446;SDS011;717;51.522;7.266;2023-07-16T09:52:26;4.00;;;2.88;;
1446;SDS011;717;51.522;7.266;2023-07-16T09:54:56;4.28;;;3.03;;
1446;SDS011;717;51.522;7.266;2023-07-16T09:57:30;4.20;;;2.83;;
1446;SDS011;717;51.522;7.266;2023-07-16T10:00:08;3.97;;;2.65;;
1446;SDS011;717;51.522;7.266;2023-07-16T10:02:42;5.32;;;2.95;;
1446;SDS011;717;51.522;7.266;2023-07-16T10:05:17;3.78;;;2.60;;
1446;SDS011;717;51.522;7.266;2023-07-16T10:07:49;4.55;;;3.05;;
1446;SDS011;717;51.522;7.266;2023-07-16T10:10:20;4.28;;;2.58;;
1446;SDS011;717;51.522;7.266;2023-07-16T10:12:54;5.18;;;2.58;;
1446;SDS011;717;51.522;7.266;2023-07-16T10:15:26;5.53;;;2.72;;
1446;SDS011;717;51.522;7.266;2023-07-16T10:17:57;3.88;;;2.65;;
1446;SDS011;717;51.522;7.266;2023-07-16T10:20:31;3.17;;;2.25;;
1446;SDS011;717;51.522;7.266;2023-07-16T10:23:12;4.50;;;2.50;;
1446;SDS011;717;51.522;7.266;2023-07-16T10:25:57;5.75;;;3.08;;
1446;SDS011;717;51.522;7.266;2023-07-16T10:28:32;4.47;;;2.78;;
1446;SDS011;717;51.522;7.266;2023-07-16T10:31:03;4.03;;;2.67;;
1446;SDS011;717;51.522;7.266;2023-07-16T10:33:34;4.18;;;2.60;;
1446;SDS011;717;51.522;7.266;2023-07-16T10:36:07;4.97;;;2.53;;
1446;SDS011;717;51.522;7.266;2023-07-16T10:38:40;3.58;;;2.50;;
1446;SDS011;717;51.522;7.266;2023-07-16T10:41:12;4.95;;;2.40;;
1446;SDS011;717;51.522;7.266;2023-07-16T10:43:42;4.60;;;3.00;;
1446;SDS011;717;51.522;7.266;2023-07-16T10:46:12;3.42;;;2.40;;
1446;SDS011;717;51.522;7.266;2023-07-16T10:48:45;5.15;;;2.70;;
1446;SDS011;717;51.522;7.266;2023-07-16T10:51:24;5.10;;;2.90;;
1446;SDS011;717;51.522;7.266;2023-07-16T10:53:58;5.13;;;2.55;;
1446;SDS011;717;51.522;7.266;2023-07-16T10:56:33;5.07;;;3.30;;
1446;SDS011;717;51.522;7.266;2023-07-16T10:59:07;5.85;;;3.22;;
1446;SDS011;717;51.522;7.266;2023-07-16T11:01:40;5.20;;;2.70;;
1446;SDS011;717;51.522;7.266;2023-07-16T11:04:10;3.97;;;2.90;;
1446;SDS011;717;51.522;7.266;2023-07-16T11:06:43;4.13;;;2.67;;
1446;SDS011;717;51.522;7.266;2023-07-16T11:09:13;3.97;;;2.17;;
1446;SDS011;717;51.522;7.266;2023-07-16T11:11:44;5.07;;;2.70;;
1446;SDS011;717;51.522;7.266;2023-07-16T11:14:14;4.35;;;2.40;;
1446;SDS011;717;51.522;7.266;2023-07-16T11:16:44;5.05;;;3.05;;
1446;SDS011;717;51.522;7.266;2023-07-16T11:19:19;3.40;;;2.47;;
1446;SDS011;717;51.522;7.266;2023-07-16T11:21:52;3.83;;;2.30;;
1446;SDS011;717;51.522;7.266;2023-07-16T11:24:22;3.00;;;2.17;;
1446;SDS011;717;51.522;7.266;2023-07-16T11:26:54;3.42;;;2.15;;
1446;SDS011;717;51.522;7.266;2023-07-16T11:29:26;3.35;;;2.28;;
1446;SDS011;717;51.522;7.266;2023-07-16T11:32:04;3.88;;;2.25;;
1446;SDS011;717;51.522;7.266;2023-07-16T11:34:35;3.55;;;2.35;;
1446;SDS011;717;51.522;7.266;2023-07-16T11:37:12;4.93;;;2.33;;
1446;SDS011;717;51.522;7.266;2023-07-16T11:39:43;4.68;;;2.30;;
1446;SDS011;717;51.522;7.266;2023-07-16T11:42:17;3.90;;;2.70;;
1446;SDS011;717;51.522;7.266;2023-07-16T11:44:52;4.15;;;2.45;;
1446;SDS011;717;51.522;7.266;2023-07-16T11:47:22;3.63;;;2.47;;
1446;SDS011;717;51.522;7.266;2023-07-16T11:50:01;3.76;;;2.70;;
1446;SDS011;717;51.522;7.266;2023-07-16T11:52:35;4.22;;;2.63;;
1446;SDS011;717;51.522;7.266;2023-07-16T11:55:05;3.50;;;2.70;;
1446;SDS011;717;51.522;7.266;2023-07-16T11:57:36;4.15;;;2.40;;
1446;SDS011;717;51.522;7.266;2023-07-16T12:00:06;3.92;;;2.47;;
1446;SDS011;717;51.522;7.266;2023-07-16T12:02:38;2.92;;;2.20;;
1446;SDS011;717;51.522;7.266;2023-07-16T12:05:08;4.20;;;2.03;;
1446;SDS011;717;51.522;7.266;2023-07-16T12:07:43;4.13;;;2.30;;
1446;SDS011;717;51.522;7.266;2023-07-16T12:10:13;4.93;;;2.53;;
1446;SDS011;717;51.522;7.266;2023-07-16T12:12:43;4.90;;;2.60;;
1446;SDS011;717;51.522;7.266;2023-07-16T12:15:13;6.53;;;2.80;;
1446;SDS011;717;51.522;7.266;2023-07-16T12:17:43;5.00;;;2.30;;
1446;SDS011;717;51.522;7.266;2023-07-16T12:20:13;4.68;;;2.75;;
1446;SDS011;717;51.522;7.266;2023-07-16T12:22:46;4.60;;;2.40;;
1446;SDS011;717;51.522;7.266;2023-07-16T12:25:16;5.82;;;2.78;;
1446;SDS011;717;51.522;7.266;2023-07-16T12:27:49;4.18;;;2.25;;
1446;SDS011;717;51.522;7.266;2023-07-16T12:30:22;5.93;;;2.50;;
1446;SDS011;717;51.522;7.266;2023-07-16T12:32:52;3.38;;;2.50;;
1446;SDS011;717;51.522;7.266;2023-07-16T12:35:22;4.45;;;2.55;;
1446;SDS011;717;51.522;7.266;2023-07-16T12:37:55;3.75;;;2.38;;
1446;SDS011;717;51.522;7.266;2023-07-16T12:40:25;5.10;;;2.60;;
1446;SDS011;717;51.522;7.266;2023-07-16T12:42:57;4.00;;;2.30;;
1446;SDS011;717;51.522;7.266;2023-07-16T12:45:27;2.97;;;2.20;;
1446;SDS011;717;51.522;7.266;2023-07-16T12:47:57;3.72;;;2.47;;
1446;SDS011;717;51.522;7.266;2023-07-16T12:50:28;3.97;;;2.42;;
1446;SDS011;717;51.522;7.266;2023-07-16T12:53:00;3.60;;;2.72;;
1446;SDS011;717;51.522;7.266;2023-07-16T12:55:32;3.63;;;2.45;;
1446;SDS011;717;51.522;7.266;2023-07-16T12:58:03;5.90;;;2.70;;
1446;SDS011;717;51.522;7.266;2023-07-16T13:00:33;5.18;;;2.60;;
1446;SDS011;717;51.522;7.266;2023-07-16T13:03:03;4.78;;;2.75;;
1446;SDS011;717;51.522;7.266;2023-07-16T13:05:37;4.43;;;2.38;;
1446;SDS011;717;51.522;7.266;2023-07-16T13:08:10;4.35;;;2.60;;
1446;SDS011;717;51.522;7.266;2023-07-16T13:10:40;4.13;;;2.40;;
1446;SDS011;717;51.522;7.266;2023-07-16T13:13:11;4.88;;;2.50;;
1446;SDS011;717;51.522;7.266;2023-07-16T13:15:41;4.35;;;2.55;;
1446;SDS011;717;51.522;7.266;2023-07-16T13:18:12;4.05;;;2.42;;
1446;SDS011;717;51.522;7.266;2023-07-16T13:20:45;4.63;;;2.15;;
1446;SDS011;717;51.522;7.266;2023-07-16T13:23:17;5.20;;;2.70;;
1446;SDS011;717;51.522;7.266;2023-07-16T13:25:48;3.55;;;2.60;;
1446;SDS011;717;51.522;7.266;2023-07-16T13:28:19;5.68;;;2.63;;
1446;SDS011;717;51.522;7.266;2023-07-16T13:30:50;3.88;;;2.35;;
1446;SDS011;717;51.522;7.266;2023-07-16T13:33:20;3.40;;;2.30;;
1446;SDS011;717;51.522;7.266;2023-07-16T13:35:51;3.30;;;2.30;;
1446;SDS011;717;51.522;7.266;2023-07-16T13:38:23;3.63;;;2.33;;
1446;SDS011;717;51.522;7.266;2023-07-16T13:40:53;4.20;;;2.35;;
1446;SDS011;717;51.522;7.266;2023-07-16T13:43:24;2.45;;;2.25;;
1446;SDS011;717;51.522;7.266;2023-07-16T13:45:54;4.13;;;2.20;;
1446;SDS011;717;51.522;7.266;2023-07-16T13:48:24;5.00;;;2.47;;
1446;SDS011;717;51.522;7.266;2023-07-16T13:50:56;3.85;;;2.67;;
1446;SDS011;717;51.522;7.266;2023-07-16T13:53:29;4.80;;;2.65;;
1446;SDS011;717;51.522;7.266;2023-07-16T13:55:59;4.53;;;2.75;;
1446;SDS011;717;51.522;7.266;2023-07-16T13:58:29;4.68;;;2.50;;
1446;SDS011;717;51.522;7.266;2023-07-16T14:00:59;6.75;;;3.00;;
1446;SDS011;717;51.522;7.266;2023-07-16T14:03:30;4.60;;;2.60;;
1446;SDS011;717;51.522;7.266;2023-07-16T14:06:00;5.50;;;2.63;;
1446;SDS011;717;51.522;7.266;2023-07-16T14:08:33;3.22;;;2.65;;
1446;SDS011;717;51.522;7.266;2023-07-16T14:11:03;4.68;;;2.90;;
1446;SDS011;717;51.522;7.266;2023-07-16T14:13:33;6.90;;;3.00;;
1446;SDS011;717;51.522;7.266;2023-07-16T14:16:04;4.80;;;2.83;;
1446;SDS011;717;51.522;7.266;2023-07-16T14:18:49;3.35;;;2.50;;
1446;SDS011;717;51.522;7.266;2023-07-16T14:21:20;3.45;;;2.72;;
1446;SDS011;717;51.522;7.266;2023-07-16T14:23:52;3.88;;;2.50;;
1446;SDS011;717;51.522;7.266;2023-07-16T14:26:22;3.35;;;2.78;;
1446;SDS011;717;51.522;7.266;2023-07-16T14:28:52;4.10;;;2.70;;
1446;SDS011;717;51.522;7.266;2023-07-16T14:31:22;3.97;;;2.30;;
1446;SDS011;717;51.522;7.266;2023-07-16T14:33:55;2.80;;;2.45;;
1446;SDS011;717;51.522;7.266;2023-07-16T14:36:25;4.38;;;2.58;;
1446;SDS011;717;51.522;7.266;2023-07-16T14:38:55;3.80;;;2.58;;
1446;SDS011;717;51.522;7.266;2023-07-16T14:41:25;4.95;;;3.10;;
1446;SDS011;717;51.522;7.266;2023-07-16T14:43:55;4.07;;;2.65;;
1446;SDS011;717;51.522;7.266;2023-07-16T14:46:25;3.33;;;2.55;;
1446;SDS011;717;51.522;7.266;2023-07-16T14:48:58;3.45;;;2.78;;
1446;SDS011;717;51.522;7.266;2023-07-16T14:51:28;6.13;;;2.50;;
1446;SDS011;717;51.522;7.266;2023-07-16T14:54:06;4.35;;;2.70;;
1446;SDS011;717;51.522;7.266;2023-07-16T14:56:36;5.60;;;2.58;;
1446;SDS011;717;51.522;7.266;2023-07-16T14:59:07;3.67;;;2.40;;
1446;SDS011;717;51.522;7.266;2023-07-16T15:01:37;5.93;;;2.58;;
1446;SDS011;717;51.522;7.266;2023-07-16T15:04:09;5.22;;;2.92;;
1446;SDS011;717;51.522;7.266;2023-07-16T15:06:40;3.75;;;2.40;;
1446;SDS011;717;51.522;7.266;2023-07-16T15:09:10;4.38;;;2.47;;
1446;SDS011;717;51.522;7.266;2023-07-16T15:11:40;3.85;;;2.30;;
1446;SDS011;717;51.522;7.266;2023-07-16T15:14:10;3.88;;;2.40;;
1446;SDS011;717;51.522;7.266;2023-07-16T15:16:40;8.70;;;2.90;;
1446;SDS011;717;51.522;7.266;2023-07-16T15:19:13;3.90;;;2.17;;
1446;SDS011;717;51.522;7.266;2023-07-16T15:21:44;5.35;;;2.58;;
1446;SDS011;717;51.522;7.266;2023-07-16T15:24:14;3.47;;;2.05;;
1446;SDS011;717;51.522;7.266;2023-07-16T15:26:45;5.20;;;2.60;;
1446;SDS011;717;51.522;7.266;2023-07-16T15:29:15;4.65;;;2.53;;
1446;SDS011;717;51.522;7.266;2023-07-16T15:31:45;4.38;;;2.22;;
1446;SDS011;717;51.522;7.266;2023-07-16T15:34:18;3.33;;;2.42;;
1446;SDS011;717;51.522;7.266;2023-07-16T15:36:49;4.53;;;2.42;;
1446;SDS011;717;51.522;7.266;2023-07-16T15:39:19;4.25;;;2.17;;
1446;SDS011;717;51.522;7.266;2023-07-16T15:41:49;3.67;;;2.30;;
1446;SDS011;717;51.522;7.266;2023-07-16T15:44:19;3.88;;;2.53;;
1446;SDS011;717;51.522;7.266;2023-07-16T15:46:49;5.82;;;2.30;;
1446;SDS011;717;51.522;7.266;2023-07-16T15:49:22;2.05;;;1.83;;
1446;SDS011;717;51.522;7.266;2023-07-16T15:51:52;3.58;;;1.92;;
1446;SDS011;717;51.522;7.266;2023-07-16T15:54:22;4.00;;;2.00;;